Time;durP1;ratioP1;P1;durP2;ratioP2;P2;SDS_P1;SDS_P2;PMS_P1;PMS_P2;Temp;Humidity;BMP_temperature;BMP_pressure;BME280_temperature;BME280_humidity;BME280_pressure;Samples;Min_cycle;Max_cycle;Signal;HPM_P1;HPM_P2
2021/10/15 00:01:06;;;;;;;25.15;14.93;;;;;;;8.25;73.06;101783.94;1789915;78;20900;-82
2021/10/15 00:03:33;;;;;;;26.45;15.58;;;;;;;8.26;73.02;101790.86;1789985;80;21785;-83
2021/10/15 00:06:00;;;;;;;25.05;16.25;;;;;;;8.26;73.07;101784.80;1792021;78;20915;-81
2021/10/15 00:08:29;;;;;;;22.17;14.68;;;;;;;8.25;73.01;101785.25;1793050;80;20946;-84
2021/10/15 00:10:56;;;;;;;22.50;14.70;;;;;;;8.23;72.90;101783.59;1791429;78;20891;-84
2021/10/15 00:13:29;;;;;;;35.52;20.08;;;;;;;8.21;72.96;101782.33;1792091;79;20864;-85
2021/10/15 00:15:58;;;;;;;54.27;25.70;;;;;;;8.19;73.07;101783.28;1759624;81;21152;-86
2021/10/15 00:18:25;;;;;;;52.35;29.02;;;;;;;8.17;73.12;101779.86;1758439;81;20927;-85
2021/10/15 00:20:52;;;;;;;50.92;27.67;;;;;;;8.16;73.28;101772.91;1758509;80;20848;-86
2021/10/15 00:23:19;;;;;;;44.75;25.77;;;;;;;8.15;73.42;101770.75;1758504;81;20911;-86
2021/10/15 00:25:46;;;;;;;40.00;23.67;;;;;;;8.15;73.48;101764.68;1758702;81;20903;-86
2021/10/15 00:28:13;;;;;;;35.55;20.92;;;;;;;8.13;73.69;101768.63;1758589;81;21129;-87
2021/10/15 00:30:39;;;;;;;41.50;22.98;;;;;;;8.14;73.65;101769.48;1758440;81;20930;-87
2021/10/15 00:33:06;;;;;;;28.83;18.05;;;;;;;8.13;73.84;101771.25;1758741;81;20875;-85
2021/10/15 00:35:34;;;;;;;22.00;14.58;;;;;;;8.12;73.93;101776.08;1758523;80;20986;-83
2021/10/15 00:38:00;;;;;;;19.17;13.00;;;;;;;8.13;73.93;101778.23;1758801;81;21361;-84
2021/10/15 00:40:27;;;;;;;20.77;13.10;;;;;;;8.13;73.67;101774.31;1758665;81;21111;-86
2021/10/15 00:42:54;;;;;;;20.02;12.40;;;;;;;8.13;73.47;101772.55;1758490;81;20914;-83
2021/10/15 00:45:21;;;;;;;16.35;11.80;;;;;;;8.13;73.32;101773.86;1749764;82;20884;-83
2021/10/15 00:47:47;;;;;;;19.02;11.75;;;;;;;8.14;73.22;101776.02;1750146;82;21476;-83
2021/10/15 00:50:14;;;;;;;17.07;13.22;;;;;;;8.16;72.96;101779.44;1749884;82;21512;-83
2021/10/15 00:52:41;;;;;;;13.88;11.90;;;;;;;8.18;72.80;101779.82;1750262;82;21053;-83
2021/10/15 00:55:09;;;;;;;22.50;13.88;;;;;;;8.19;72.40;101776.29;1697041;82;20848;-82
2021/10/15 00:57:37;;;;;;;17.85;14.28;;;;;;;8.19;72.06;101778.91;1749813;82;20919;-81
2021/10/15 01:00:05;;;;;;;25.92;15.78;;;;;;;8.18;71.80;101783.73;1749962;80;21022;-82
2021/10/15 01:02:33;;;;;;;17.95;12.43;;;;;;;8.16;71.60;101780.74;1750138;82;20967;-82
2021/10/15 01:04:59;;;;;;;18.00;13.15;;;;;;;8.14;71.40;101774.70;1749749;82;21804;-83
2021/10/15 01:07:26;;;;;;;20.08;14.15;;;;;;;8.13;71.44;101784.31;1749784;80;20915;-83
2021/10/15 01:09:53;;;;;;;21.45;14.50;;;;;;;8.13;71.66;101789.53;1749795;82;21495;-86
2021/10/15 01:12:20;;;;;;;18.32;12.18;;;;;;;8.13;71.84;101788.23;1749746;82;20931;-84
2021/10/15 01:14:47;;;;;;;15.88;12.23;;;;;;;8.10;72.01;101793.11;1749876;82;21345;-85
2021/10/15 01:17:14;;;;;;;18.80;13.00;;;;;;;8.12;72.45;101790.45;1750076;82;21153;-87
2021/10/15 01:19:40;;;;;;;17.52;13.78;;;;;;;8.13;72.66;101797.83;1749859;80;20871;-88
2021/10/15 01:22:07;;;;;;;16.62;13.00;;;;;;;8.10;72.95;101802.25;1750291;82;20923;-85
2021/10/15 01:24:35;;;;;;;18.62;13.15;;;;;;;8.10;72.98;101804.86;1749903;82;20937;-84
2021/10/15 01:27:08;;;;;;;20.68;13.55;;;;;;;8.11;73.09;101807.02;1750045;80;20907;-82
2021/10/15 01:29:36;;;;;;;18.37;14.23;;;;;;;8.09;73.37;101804.47;1751012;80;21122;-83
2021/10/15 01:32:06;;;;;;;17.40;13.85;;;;;;;8.10;73.58;101804.02;1750212;82;21006;-81
2021/10/15 01:34:33;;;;;;;19.42;14.78;;;;;;;8.12;73.80;101807.44;1749830;82;21014;-81
2021/10/15 01:37:00;;;;;;;20.27;14.55;;;;;;;8.14;73.86;101796.91;1750112;80;20912;-81
2021/10/15 01:39:27;;;;;;;19.27;14.53;;;;;;;8.15;73.96;101804.72;1750375;80;21456;-81
2021/10/15 01:41:54;;;;;;;17.02;13.93;;;;;;;8.18;74.11;101815.52;1749886;81;21149;-81
2021/10/15 01:44:21;;;;;;;21.87;15.83;;;;;;;;;;1750164;81;20876;-85
2021/10/15 01:46:48;;;;;;;23.70;15.25;;;;;;;8.21;74.47;101809.77;1750588;81;20892;-86
2021/10/15 01:49:15;;;;;;;25.10;15.70;;;;;;;8.24;74.62;101806.19;1750284;80;20947;-87
2021/10/15 01:51:42;;;;;;;25.77;16.37;;;;;;;8.26;74.72;101805.70;1749909;80;20832;-86
2021/10/15 01:54:09;;;;;;;26.17;17.40;;;;;;;8.27;74.79;101808.27;1750172;82;21193;-86
2021/10/15 01:56:40;;;;;;;21.90;17.15;;;;;;;8.28;74.71;101812.58;1749729;82;20864;-82
2021/10/15 01:59:06;;;;;;;22.13;15.30;;;;;;;8.26;74.75;101809.16;1748611;80;21460;-83
2021/10/15 02:01:33;;;;;;;21.95;16.45;;;;;;;8.29;74.87;101813.00;1749845;80;21429;-86
2021/10/15 02:04:00;;;;;;;22.73;15.60;;;;;;;8.32;74.94;101806.82;1749850;82;20884;-85
2021/10/15 02:06:27;;;;;;;22.13;15.38;;;;;;;8.32;74.94;101805.97;1750120;82;21111;-86
2021/10/15 02:08:56;;;;;;;21.62;14.75;;;;;;;8.32;75.10;101813.81;1749886;82;20868;-83
2021/10/15 02:11:23;;;;;;;26.60;15.55;;;;;;;8.35;75.29;101815.01;1750121;82;21014;-84
2021/10/15 02:13:50;;;;;;;20.32;15.95;;;;;;;8.38;75.30;101813.16;1749723;81;20935;-85
2021/10/15 02:16:17;;;;;;;27.07;16.15;;;;;;;8.40;75.56;101819.63;1750089;82;20923;-84
2021/10/15 02:18:44;;;;;;;23.65;16.85;;;;;;;8.46;75.59;101811.17;1749844;82;21102;-85
2021/10/15 02:21:11;;;;;;;25.43;17.75;;;;;;;8.52;75.62;101814.52;1749968;82;20943;-84
2021/10/15 02:23:38;;;;;;;28.95;18.82;;;;;;;8.57;75.57;101823.91;1749816;82;20911;-84
2021/10/15 02:26:05;;;;;;;32.98;21.25;;;;;;;8.59;75.29;101812.10;1750176;82;20948;-84
2021/10/15 02:28:34;;;;;;;69.27;37.15;;;;;;;8.59;75.14;101815.56;1749926;82;20868;-85
2021/10/15 02:31:00;;;;;;;85.60;42.53;;;;;;;8.60;74.96;101825.10;1750185;80;21234;-85
2021/10/15 02:33:27;;;;;;;65.80;35.80;;;;;;;8.59;74.94;101820.80;1720963;82;20919;-85
2021/10/15 02:35:55;;;;;;;58.42;30.85;;;;;;;8.61;74.88;101827.30;1750160;82;20899;-85
2021/10/15 02:38:22;;;;;;;59.40;32.60;;;;;;;8.62;74.85;101821.14;1749764;82;20852;-86
2021/10/15 02:40:49;;;;;;;31.77;21.87;;;;;;;8.63;74.78;101822.41;1750184;82;21389;-87
2021/10/15 02:43:16;;;;;;;37.63;22.80;;;;;;;8.64;74.73;101824.10;1749905;82;21119;-87
2021/10/15 02:45:43;;;;;;;21.97;16.52;;;;;;;8.64;74.70;101821.48;1754915;81;20919;-86
2021/10/15 02:48:09;;;;;;;28.02;16.73;;;;;;;8.65;74.77;101812.76;1755345;81;20844;-87
2021/10/15 02:50:36;;;;;;;21.25;15.23;;;;;;;8.67;74.72;101818.80;1755432;81;20892;-87
2021/10/15 02:53:03;;;;;;;26.17;15.78;;;;;;;8.68;74.76;101809.19;1755447;80;21014;-85
2021/10/15 02:58:41;;;;;;;58.50;33.13;;;;;;;8.76;75.03;101821.98;1852648;77;22239;-82
2021/10/15 03:01:08;;;;;;;61.15;36.83;;;;;;;8.74;74.88;101816.83;1820332;78;20967;-82
2021/10/15 03:03:37;;;;;;;33.28;23.62;;;;;;;8.76;74.64;101815.45;1820580;78;21985;-82
2021/10/15 03:06:03;;;;;;;37.13;23.65;;;;;;;8.75;74.59;101813.30;1820182;78;20978;-82
2021/10/15 03:08:31;;;;;;;43.28;27.67;;;;;;;8.75;74.59;101819.83;1820299;78;20900;-82
2021/10/15 03:10:57;;;;;;;42.80;27.37;;;;;;;8.74;74.56;101812.91;1820427;78;20952;-86
2021/10/15 03:13:25;;;;;;;49.80;28.20;;;;;;;8.72;74.68;101816.02;1820497;78;20900;-86
2021/10/15 03:15:54;;;;;;;53.78;29.23;;;;;;;8.71;74.80;101812.99;1820455;78;20884;-87
2021/10/15 03:18:21;;;;;;;54.88;27.82;;;;;;;8.70;74.57;101805.61;1820175;78;20927;-84
2021/10/15 03:20:48;;;;;;;57.23;30.27;;;;;;;8.71;74.27;101805.14;1820691;78;20955;-86
2021/10/15 03:23:14;;;;;;;60.52;31.50;;;;;;;8.69;74.04;101802.60;1820177;78;20891;-87
2021/10/15 03:25:41;;;;;;;47.83;28.92;;;;;;;8.64;74.13;101802.34;1820737;78;20943;-85
2021/10/15 03:28:08;;;;;;;55.03;29.63;;;;;;;8.59;74.35;101798.56;1820210;78;21123;-86
2021/10/15 03:30:36;;;;;;;49.50;29.15;;;;;;;8.57;74.56;101800.84;1820128;78;20864;-85
2021/10/15 03:33:03;;;;;;;50.80;27.90;;;;;;;8.52;74.79;101794.91;1820384;78;21314;-84
2021/10/15 03:35:30;;;;;;;46.20;25.85;;;;;;;8.47;75.09;101796.34;1820728;78;21441;-83
2021/10/15 03:37:56;;;;;;;43.85;25.08;;;;;;;8.46;75.63;101798.10;1820280;78;20883;-81
2021/10/15 03:40:25;;;;;;;46.98;27.00;;;;;;;8.52;75.89;101798.83;1820227;78;21191;-82
2021/10/15 03:42:52;;;;;;;46.55;27.02;;;;;;;8.58;75.94;101798.61;1820334;78;20939;-79
2021/10/15 03:45:18;;;;;;;45.03;27.58;;;;;;;8.63;75.93;101808.48;1820265;78;21493;-81
2021/10/15 03:47:46;;;;;;;44.83;26.10;;;;;;;8.65;75.74;101817.98;1820180;78;21037;-80
2021/10/15 03:50:13;;;;;;;48.95;26.30;;;;;;;8.66;75.63;101814.45;1820330;78;20872;-80
2021/10/15 03:52:40;;;;;;;50.83;22.60;;;;;;;8.69;75.63;101813.49;1820328;78;21179;-80
2021/10/15 03:55:10;;;;;;;35.92;22.60;;;;;;;8.70;75.59;101817.38;1820423;78;20833;-81
2021/10/15 03:57:39;;;;;;;38.75;24.60;;;;;;;8.72;75.41;101823.87;1820045;78;20903;-81
2021/10/15 04:00:10;;;;;;;33.23;21.17;;;;;;;8.73;75.35;101819.48;1820301;78;21416;-83
2021/10/15 04:02:41;;;;;;;35.78;22.05;;;;;;;8.74;75.22;101824.68;1820445;78;20887;-82
2021/10/15 04:05:09;;;;;;;39.75;21.55;;;;;;;8.77;74.99;101830.25;1820249;78;21099;-81
2021/10/15 04:07:35;;;;;;;33.08;21.17;;;;;;;8.79;74.91;101839.76;1820325;78;20860;-83
2021/10/15 04:10:02;;;;;;;31.85;19.95;;;;;;;8.79;74.67;101833.67;1819987;78;21412;-83
2021/10/15 04:12:30;;;;;;;33.38;21.82;;;;;;;8.80;74.44;101848.45;1819895;78;20979;-83
2021/10/15 04:14:57;;;;;;;28.70;18.90;;;;;;;8.79;74.27;101846.75;1821268;78;20958;-82
2021/10/15 04:17:24;;;;;;;33.42;19.70;;;;;;;8.77;74.28;101850.72;1820964;78;21076;-81
2021/10/15 04:19:51;;;;;;;41.63;24.10;;;;;;;8.78;74.27;101841.10;1820235;78;21003;-81
2021/10/15 04:22:18;;;;;;;46.92;24.07;;;;;;;8.77;74.25;101853.34;1820146;78;21403;-81
2021/10/15 04:24:45;;;;;;;41.75;26.50;;;;;;;8.79;74.03;101863.30;1821016;78;20931;-81
2021/10/15 04:27:12;;;;;;;39.20;27.02;;;;;;;8.80;73.77;101864.99;1821867;78;20920;-80
2021/10/15 04:29:39;;;;;;;42.45;28.38;;;;;;;8.81;73.39;101864.56;1822535;78;21104;-79
2021/10/15 04:32:06;;;;;;;44.13;27.90;;;;;;;8.78;73.26;101864.64;1823265;78;20923;-80
2021/10/15 04:34:33;;;;;;;46.33;28.52;;;;;;;8.77;73.03;101870.34;1823253;78;20844;-81
2021/10/15 04:37:00;;;;;;;43.73;27.75;;;;;;;8.75;72.93;101868.68;1822618;78;20919;-78
2021/10/15 04:39:27;;;;;;;42.48;28.32;;;;;;;8.70;72.85;101878.83;1822516;78;20915;-79
2021/10/15 04:41:56;;;;;;;46.63;25.85;;;;;;;8.71;72.82;101883.17;1822546;78;21116;-78
2021/10/15 04:44:23;;;;;;;50.85;27.45;;;;;;;8.70;72.87;101892.36;1823113;78;20981;-79
2021/10/15 04:46:50;;;;;;;46.85;29.57;;;;;;;8.71;72.83;101887.52;1822979;78;20975;-78
2021/10/15 04:49:18;;;;;;;45.10;28.47;;;;;;;8.73;72.61;101894.87;1823404;77;21041;-82
2021/10/15 04:51:45;;;;;;;46.02;27.67;;;;;;;8.74;72.34;101891.37;1822083;78;20904;-80
2021/10/15 04:54:12;;;;;;;39.58;27.85;;;;;;;8.71;72.06;101887.09;1822762;78;21108;-81
2021/10/15 04:56:46;;;;;;;42.60;27.93;;;;;;;8.67;71.94;101879.37;1822601;78;20951;-82
2021/10/15 04:59:15;;;;;;;46.35;26.48;;;;;;;8.66;71.93;101882.44;1827999;78;21088;-82
2021/10/15 05:01:43;;;;;;;48.55;27.75;;;;;;;8.66;71.91;101886.83;1828843;78;20915;-82
2021/10/15 05:04:09;;;;;;;47.13;25.70;;;;;;;8.65;71.91;101878.13;1829076;78;20963;-84
2021/10/15 05:06:36;;;;;;;38.83;26.05;;;;;;;8.68;72.07;101878.48;1827864;78;21116;-83
2021/10/15 05:11:33;;;;;;;50.90;27.67;;;;;;;8.74;71.87;101882.22;1826027;78;20868;-83
2021/10/15 05:14:01;;;;;;;45.63;29.15;;;;;;;8.76;71.80;101879.53;1826131;78;20928;-83
2021/10/15 05:16:27;;;;;;;48.50;28.87;;;;;;;8.74;71.70;101873.48;1826137;78;21030;-82
2021/10/15 05:18:55;;;;;;;43.30;29.60;;;;;;;8.72;71.46;101874.87;1825656;78;21144;-83
2021/10/15 05:21:22;;;;;;;51.73;28.98;;;;;;;8.70;71.51;101885.83;1825510;78;20832;-83
2021/10/15 05:23:49;;;;;;;46.25;28.07;;;;;;;8.71;71.42;101888.41;1825514;78;20928;-84
2021/10/15 05:26:17;;;;;;;46.00;25.35;;;;;;;8.73;71.36;101884.41;1825379;78;21033;-84
2021/10/15 05:28:44;;;;;;;45.23;28.05;;;;;;;8.78;71.35;101885.56;1825446;78;21487;-84
2021/10/15 05:31:11;;;;;;;47.20;29.77;;;;;;;8.83;71.45;101883.69;1825464;78;21129;-86
2021/10/15 05:33:38;;;;;;;45.73;29.02;;;;;;;8.92;71.79;101885.53;1825494;78;20911;-86
2021/10/15 05:36:05;;;;;;;54.25;31.87;;;;;;;9.02;72.03;101890.00;1825496;78;20986;-84
2021/10/15 05:38:32;;;;;;;51.65;30.60;;;;;;;9.10;72.21;101884.53;1825809;78;20920;-81
2021/10/15 05:40:59;;;;;;;45.50;27.62;;;;;;;9.15;72.19;101890.91;1825574;78;20895;-82
2021/10/15 05:43:25;;;;;;;44.48;25.88;;;;;;;9.18;72.07;101896.91;1826095;78;21100;-81
2021/10/15 05:45:54;;;;;;;36.70;23.50;;;;;;;9.24;71.73;101899.30;1826519;78;20844;-79
2021/10/15 05:48:21;;;;;;;39.95;23.42;;;;;;;9.30;71.42;101893.86;1827941;78;20896;-83
2021/10/15 05:50:48;;;;;;;34.85;23.25;;;;;;;9.33;71.22;101903.38;1827210;78;21499;-81
2021/10/15 05:53:18;;;;;;;40.20;24.90;;;;;;;9.39;71.16;101903.17;1825920;78;20907;-81
2021/10/15 06:01:13;;;;;;;36.68;23.90;;;;;;;9.66;70.50;101890.86;1819818;78;20959;-80
2021/10/15 06:03:43;;;;;;;41.10;23.55;;;;;;;9.73;70.33;101898.89;1819604;78;20928;-81
2021/10/15 06:14:22;;;;;;;29.63;19.82;;;;;;;9.93;69.53;101903.41;1819779;78;20931;-81
2021/10/15 06:16:52;;;;;;;32.67;20.15;;;;;;;10.00;69.49;101907.97;1819856;78;20966;-81
2021/10/15 06:19:20;;;;;;;32.25;20.17;;;;;;;10.08;69.52;101908.55;1820439;78;20974;-81
2021/10/15 06:21:47;;;;;;;29.52;19.45;;;;;;;10.17;69.50;101903.42;1820015;78;21117;-82
2021/10/15 06:24:14;;;;;;;28.77;18.02;;;;;;;10.28;69.29;101900.41;1819708;78;20817;-83
2021/10/15 06:26:41;;;;;;;24.67;16.07;;;;;;;10.34;68.91;101897.13;1819600;78;20900;-81
2021/10/15 06:29:07;;;;;;;27.75;16.57;;;;;;;10.41;68.74;101896.89;1819599;78;21599;-79
2021/10/15 06:31:36;;;;;;;18.98;14.20;;;;;;;10.45;68.66;101899.34;1819564;78;20900;-80
2021/10/15 06:34:03;;;;;;;26.55;14.75;;;;;;;10.50;68.01;101897.38;1819788;78;21121;-83
2021/10/15 06:36:31;;;;;;;20.97;15.13;;;;;;;10.54;67.71;101899.44;1819613;78;20966;-82
2021/10/15 06:38:58;;;;;;;21.65;15.60;;;;;;;10.60;67.58;101900.48;1819843;78;21476;-85
2021/10/15 06:41:24;;;;;;;19.85;14.90;;;;;;;10.67;67.54;101907.66;1819620;78;20872;-82
2021/10/15 06:43:51;;;;;;;21.42;15.60;;;;;;;10.77;67.33;101904.60;1819889;78;20903;-80
2021/10/15 06:46:20;;;;;;;22.22;15.72;;;;;;;10.89;67.15;101906.34;1819824;78;21118;-80
2021/10/15 06:48:47;;;;;;;19.67;14.95;;;;;;;10.98;67.02;101910.77;1819510;78;20880;-82
2021/10/15 06:51:14;;;;;;;23.30;16.37;;;;;;;11.07;66.72;101900.36;1819899;78;20939;-81
2021/10/15 06:53:40;;;;;;;26.95;17.32;;;;;;;11.15;66.57;101900.02;1750014;82;21015;-83
2021/10/15 06:56:07;;;;;;;24.27;16.67;;;;;;;11.22;66.55;101900.62;1819606;78;21373;-78
2021/10/15 06:58:34;;;;;;;35.23;18.73;;;;;;;11.30;66.29;101902.00;1819469;78;21110;-77
2021/10/15 07:01:02;;;;;;;26.35;16.60;;;;;;;11.37;66.19;101903.44;1819524;78;20953;-76
2021/10/15 07:03:28;;;;;;;37.67;19.30;;;;;;;11.47;65.86;101899.10;1819616;78;21028;-77
2021/10/15 07:05:56;;;;;;;31.93;19.02;;;;;;;11.58;65.49;101899.48;1819413;79;20869;-78
2021/10/15 07:08:24;;;;;;;27.70;17.92;;;;;;;11.69;65.34;101899.87;1820001;78;20876;-77
2021/10/15 07:10:52;;;;;;;24.60;14.90;;;;;;;11.82;65.05;101901.03;1819498;79;21060;-76
2021/10/15 07:13:19;;;;;;;25.25;14.65;;;;;;;11.97;64.31;101900.00;1819637;78;21631;-77
2021/10/15 07:15:46;;;;;;;17.98;14.38;;;;;;;12.05;63.39;101895.70;1819669;78;20985;-77
2021/10/15 07:18:14;;;;;;;39.35;16.65;;;;;;;12.10;62.74;101899.84;1819897;78;20935;-77
2021/10/15 07:20:42;;;;;;;23.02;15.03;;;;;;;12.12;62.12;101894.05;1819640;79;21073;-79
2021/10/15 07:23:12;;;;;;;22.52;14.10;;;;;;;12.15;61.58;101892.58;1819801;78;22183;-77
2021/10/15 07:25:39;;;;;;;21.25;14.87;;;;;;;12.18;61.24;101889.83;1819501;79;20975;-79
2021/10/15 07:28:07;;;;;;;19.52;15.03;;;;;;;12.29;61.26;101889.30;1819884;78;21374;-79
2021/10/15 07:30:34;;;;;;;19.85;14.15;;;;;;;12.69;61.22;101878.19;1819568;79;21338;-79
2021/10/15 07:33:01;;;;;;;19.98;13.95;;;;;;;13.38;59.72;101873.44;1819635;79;20978;-78
2021/10/15 07:35:28;;;;;;;18.57;13.58;;;;;;;14.19;57.78;101877.50;1819614;79;21856;-81
2021/10/15 07:37:55;;;;;;;18.02;14.33;;;;;;;15.00;55.75;101874.69;1819697;78;20865;-80
2021/10/15 07:40:23;;;;;;;16.52;14.03;;;;;;;15.90;54.25;101879.48;1819718;78;21468;-79
2021/10/15 07:42:50;;;;;;;17.07;13.70;;;;;;;16.82;52.26;101885.50;1819954;78;20927;-80
2021/10/15 07:45:16;;;;;;;21.48;13.78;;;;;;;17.66;50.08;101875.43;1819734;78;21404;-78
2021/10/15 07:47:43;;;;;;;20.32;13.83;;;;;;;18.35;47.83;101873.19;1819660;78;21183;-80
2021/10/15 07:50:10;;;;;;;20.77;12.82;;;;;;;18.91;46.34;101874.80;1819560;78;20912;-79
2021/10/15 07:52:40;;;;;;;19.95;13.13;;;;;;;19.36;44.41;101872.25;1820009;78;21389;-79
2021/10/15 07:55:09;;;;;;;15.00;12.28;;;;;;;19.83;43.58;101874.84;1819885;78;20923;-79
2021/10/15 07:57:36;;;;;;;16.23;11.90;;;;;;;20.25;42.02;101878.58;1819930;78;20896;-78
2021/10/15 08:00:05;;;;;;;16.45;11.97;;;;;;;;;;1819570;78;21798;-78
2021/10/15 08:02:33;;;;;;;14.05;11.50;;;;;;;21.12;39.83;101866.97;1819966;78;20852;-78
2021/10/15 08:05:00;;;;;;;15.00;13.45;;;;;;;21.58;38.82;101866.22;1819752;78;20916;-78
2021/10/15 08:07:27;;;;;;;18.70;12.98;;;;;;;22.07;38.27;101865.40;1819941;78;20888;-79
2021/10/15 08:09:54;;;;;;;18.00;12.53;;;;;;;22.53;36.83;101865.80;1819691;78;20888;-79
2021/10/15 08:12:23;;;;;;;14.83;12.18;;;;;;;22.91;36.08;101861.42;1819575;78;20927;-81
2021/10/15 08:14:50;;;;;;;19.65;11.83;;;;;;;23.34;35.17;101864.98;1819817;78;20994;-82
2021/10/15 08:17:17;;;;;;;16.17;11.97;;;;;;;23.79;34.76;101877.66;1819704;78;20966;-81
2021/10/15 08:19:44;;;;;;;19.57;11.90;;;;;;;24.20;33.95;101875.96;1819571;78;20927;-79
2021/10/15 08:22:11;;;;;;;16.05;11.78;;;;;;;24.44;33.27;101880.74;1819805;78;20911;-80
2021/10/15 08:24:38;;;;;;;16.42;11.10;;;;;;;24.56;32.87;101871.99;1820059;78;21096;-83
2021/10/15 08:27:05;;;;;;;19.87;11.63;;;;;;;24.74;31.62;101878.19;1819517;78;20892;-78
2021/10/15 08:29:37;;;;;;;20.95;12.07;;;;;;;24.80;31.63;101874.06;1819714;78;20888;-80
2021/10/15 08:32:01;;;;;;;13.95;11.20;;;;;;;24.80;31.00;101874.06;1819015;78;20924;-82
2021/10/15 08:34:29;;;;;;;17.40;14.40;;;;;;;24.84;31.17;101871.41;1819678;78;20959;-84
2021/10/15 08:36:56;;;;;;;17.65;14.50;;;;;;;24.90;30.37;101862.75;1819653;78;21131;-81
2021/10/15 08:39:26;;;;;;;25.27;15.75;;;;;;;25.13;29.57;101863.07;1819851;78;20872;-80
2021/10/15 08:41:54;;;;;;;21.95;15.53;;;;;;;25.22;28.30;101863.50;1819633;78;20963;-82
2021/10/15 08:44:21;;;;;;;17.85;13.58;;;;;;;25.08;28.53;101871.23;1819896;78;20966;-82
2021/10/15 08:46:48;;;;;;;17.23;13.18;;;;;;;24.99;28.99;101873.02;1819727;78;20969;-85
2021/10/15 08:49:15;;;;;;;17.00;13.60;;;;;;;24.88;28.67;101867.42;1820016;78;21105;-82
2021/10/15 08:51:42;;;;;;;15.88;12.90;;;;;;;24.86;28.70;101870.77;1819538;78;20959;-84
2021/10/15 08:54:09;;;;;;;16.07;14.30;;;;;;;24.93;28.86;101869.64;1819847;78;20876;-81
2021/10/15 08:56:40;;;;;;;18.30;14.07;;;;;;;24.99;27.61;101868.99;1819646;78;20876;-80
2021/10/15 08:59:07;;;;;;;20.50;12.80;;;;;;;24.95;27.65;101862.28;1819453;78;20895;-81
2021/10/15 09:01:45;;;;;;;13.32;12.03;;;;;;;25.08;27.73;101856.48;1819759;78;20936;-84
2021/10/15 09:04:22;;;;;;;17.57;14.07;;;;;;;25.26;28.12;101860.01;1819965;78;20971;-82
2021/10/15 09:06:42;;;;;;;14.53;12.68;;;;;;;25.38;27.81;101851.17;1818297;78;20916;-83
2021/10/15 09:09:10;;;;;;;16.42;11.90;;;;;;;25.31;28.30;101852.31;1820077;78;21408;-83
2021/10/15 09:11:45;;;;;;;14.38;12.10;;;;;;;25.21;27.63;101845.72;1819724;78;20845;-84
2021/10/15 09:14:18;;;;;;;15.60;11.93;;;;;;;25.16;27.65;101833.22;1819984;78;21236;-84
2021/10/15 09:17:00;;;;;;;;;;;;;;;25.12;28.00;101830.50;1823315;78;21377;-83
2021/10/15 09:19:34;;;;;;;16.50;13.18;;;;;;;25.13;28.00;101830.86;1820374;78;20098;-83
2021/10/15 09:22:28;;;;;;;14.87;13.35;;;;;;;24.99;27.49;101830.08;1819536;78;20963;-84
2021/10/15 09:25:07;;;;;;;14.60;12.23;;;;;;;24.77;28.00;101834.97;1819807;78;20884;-84
2021/10/15 09:27:46;;;;;;;14.30;11.93;;;;;;;24.71;27.97;101830.22;1819655;78;21146;-84
2021/10/15 09:30:16;;;;;;;12.95;11.55;;;;;;;24.61;27.71;101834.81;1819600;78;21366;-86
2021/10/15 09:32:47;;;;;;;14.00;12.18;;;;;;;24.53;27.39;101824.03;1819541;78;20936;-84
2021/10/15 09:35:19;;;;;;;15.08;13.05;;;;;;;24.44;27.54;101826.27;1819965;78;20923;-82
2021/10/15 09:37:47;;;;;;;21.25;13.20;;;;;;;24.41;27.71;101829.60;1819758;78;21350;-84
2021/10/15 09:40:18;;;;;;;17.67;13.53;;;;;;;24.47;27.70;101828.63;1820123;78;21841;-82
2021/10/15 09:42:52;;;;;;;14.53;12.68;;;;;;;24.60;27.17;101834.48;1819720;78;20872;-83
2021/10/15 09:45:25;;;;;;;12.90;10.55;;;;;;;24.77;27.25;101828.77;1819934;78;20971;-86
2021/10/15 09:47:55;;;;;;;10.05;8.70;;;;;;;25.09;26.03;101819.25;1819787;78;21398;-83
2021/10/15 09:50:30;;;;;;;16.65;10.75;;;;;;;25.21;25.23;101816.66;1819630;78;20931;-80
2021/10/15 09:52:59;;;;;;;14.47;11.05;;;;;;;25.32;25.36;101818.23;1819898;78;21139;-83
2021/10/15 09:55:37;;;;;;;17.82;10.05;;;;;;;25.32;25.12;101814.20;1820142;78;21377;-84
2021/10/15 09:58:19;;;;;;;9.20;8.25;;;;;;;25.33;25.54;101815.91;1819639;78;20935;-82
2021/10/15 10:00:50;;;;;;;10.00;8.93;;;;;;;25.57;24.15;101806.62;1820459;78;20896;-82
2021/10/15 10:03:20;;;;;;;11.90;8.58;;;;;;;25.76;23.81;101803.31;1819664;78;20899;-83
2021/10/15 10:06:04;;;;;;;11.43;7.28;;;;;;;25.79;24.67;101792.23;1815083;78;21047;-83
2021/10/15 10:08:55;;;;;;;7.78;6.90;;;;;;;25.82;24.02;101786.03;1815010;78;21378;-83
2021/10/15 10:11:27;;;;;;;8.98;7.50;;;;;;;25.86;23.76;101779.84;1817798;78;20963;-82
2021/10/15 10:14:01;;;;;;;10.43;7.28;;;;;;;25.97;23.18;101781.42;1819293;78;20868;-81
2021/10/15 10:16:31;;;;;;;8.13;6.35;;;;;;;26.12;23.02;101777.05;1819649;78;20935;-83
2021/10/15 10:19:06;;;;;;;6.65;6.05;;;;;;;26.25;22.75;101780.08;1819749;78;21805;-80
2021/10/15 10:21:33;;;;;;;10.45;6.45;;;;;;;26.33;22.06;101773.89;1817947;78;21053;-79
2021/10/15 10:24:11;;;;;;;6.53;5.90;;;;;;;26.38;22.18;101775.56;1814599;78;21020;-82
2021/10/15 10:26:49;;;;;;;6.10;5.50;;;;;;;26.49;22.59;101778.42;1819733;78;20943;-78
2021/10/15 10:29:16;;;;;;;7.90;7.10;;;;;;;26.50;21.73;101773.88;1819659;78;20837;-80
2021/10/15 10:31:43;;;;;;;7.10;6.55;;;;;;;26.52;21.66;101770.52;1819999;78;21113;-81
2021/10/15 10:34:18;;;;;;;9.43;6.85;;;;;;;26.55;21.93;101775.09;1819523;78;20967;-80
2021/10/15 10:36:50;;;;;;;7.05;6.45;;;;;;;26.55;21.51;101762.98;1813187;78;20891;-80
2021/10/15 10:39:26;;;;;;;7.65;5.92;;;;;;;26.28;21.80;101764.63;1787229;78;20864;-84
2021/10/15 10:42:13;;;;;;;8.48;7.67;;;;;;;26.07;21.90;101759.23;1819967;78;20840;-83
2021/10/15 10:44:57;;;;;;;8.38;7.58;;;;;;;25.74;22.60;101748.89;1819582;78;21190;-80
2021/10/15 10:47:25;;;;;;;8.93;8.13;;;;;;;25.32;22.84;101749.25;1819932;78;20915;-81
2021/10/15 10:50:12;;;;;;;9.83;9.03;;;;;;;24.93;23.98;101747.02;1819655;78;20817;-82
2021/10/15 10:52:51;;;;;;;10.72;9.73;;;;;;;24.69;24.10;101761.63;1818939;78;20884;-81
2021/10/15 10:55:45;;;;;;;10.20;9.15;;;;;;;24.29;24.34;101759.77;1820168;78;20880;-78
2021/10/15 10:58:34;;;;;;;12.30;9.60;;;;;;;23.86;24.28;101757.34;1820220;78;21122;-79
2021/10/15 11:01:27;;;;;;;10.25;9.23;;;;;;;23.39;25.04;101754.78;1810015;78;21481;-80
2021/10/15 11:04:06;;;;;;;12.78;10.08;;;;;;;22.88;25.56;101749.38;1809489;78;20880;-80
2021/10/15 11:07:03;;;;;;;11.10;9.98;;;;;;;22.43;26.71;101749.98;1800582;79;20975;-80
2021/10/15 11:09:56;;;;;;;12.47;11.22;;;;;;;22.07;27.34;101745.17;1804520;78;21473;-79
2021/10/15 11:12:32;;;;;;;11.68;9.13;;;;;;;21.42;27.83;101742.10;1809561;78;21162;-80
2021/10/15 11:15:07;;;;;;;13.53;10.45;;;;;;;20.89;28.61;101738.25;1809311;79;21027;-79
2021/10/15 11:17:47;;;;;;;12.43;10.43;;;;;;;20.52;29.13;101736.05;1809347;79;20910;-80
2021/10/15 11:20:20;;;;;;;11.03;9.93;;;;;;;20.20;29.68;101733.41;1809563;79;20936;-81
2021/10/15 11:23:06;;;;;;;11.33;9.83;;;;;;;19.88;30.13;101738.23;1809664;78;20915;-80
2021/10/15 11:25:41;;;;;;;20.27;12.60;;;;;;;19.57;30.71;101736.70;1809628;79;21559;-79
2021/10/15 11:28:14;;;;;;;15.35;12.47;;;;;;;19.18;31.28;101726.08;1809447;78;20884;-79
2021/10/15 11:30:44;;;;;;;13.75;11.97;;;;;;;18.68;32.02;101728.18;1809972;79;20896;-80
2021/10/15 11:33:20;;;;;;;13.48;11.90;;;;;;;18.28;33.13;101728.55;1809298;79;20975;-79
2021/10/15 11:35:50;;;;;;;12.98;11.68;;;;;;;18.07;33.24;101726.50;1809909;79;20916;-82
2021/10/15 11:38:25;;;;;;;14.28;11.90;;;;;;;17.89;33.63;101729.19;1809514;78;21782;-81
2021/10/15 11:40:59;;;;;;;16.27;12.20;;;;;;;17.72;33.89;101728.59;1809576;79;21443;-81
2021/10/15 11:43:33;;;;;;;14.83;11.68;;;;;;;17.55;34.14;101728.47;1808926;78;20876;-82
2021/10/15 11:46:09;;;;;;;15.15;10.98;;;;;;;17.42;34.67;101729.47;1808998;78;20974;-80